Terminal Aerodrome Forecast
Issued by NWS

Home | Current Version | Previous Version | Text Only | Print | Product List | Glossary On
Versions: 1 2 3 4 5 6 7 8 9 10 11 12 13 14 15 16 17 18 19 20
000
FTUS42 KMLB 220541
TAFSFB
TAF
KSFB 220541Z 2206/2306 00000KT 6SM BR FEW030 SCT120 BKN250
     FM221500 13011KT P6SM VCSH SCT030 BKN050 BKN100
      TEMPO 2216/2220 2SM SHRA BKN025
     FM230200 12004KT P6SM FEW030 BKN100 OVC250=

USA.gov is the U.S. government's official web portal to all federal, state and local government web resources and services.